Blythe, CA

11:25 AM PDT on May 23, 2017 (GMT -0700)
farmerman92225 | | Change Station

Elev 259 ft 33.62 °N, 114.66 °W | Updated 4 minutes ago

Clear
Clear
100.1 °F
Feels Like 95 °F
N
6.0
Wind Variable Wind from ENE
Gusts 6.0 mph

Today
High -- | Low -- °F
--% Chance of Precip.
Yesterday
High -- | Low -- °F
Precip. -- in
Pressure 29.85 in
Visibility 10.0 miles
Clouds Clear
Heat Index 95 °F
Dew Point 38 °F
Humidity 12%
Rainfall 0.00 in
Snow Depth Not available.
5:32 AM 7:38 PM
Waning Crescent, 6% visible
METAR KBLH 231752Z AUTO 06006KT 10SM CLR 38/01 A2987 RMK AO2 SLP106 T03830006 10383 20222 58002
Pressure 29.85 in
Visibility 10.0 miles
Clouds Clear
Heat Index 95 °F
Dew Point 38 °F
Humidity 12%
Rainfall 0.00 in
Snow Depth Not available.
5:32 AM 7:38 PM
Waning Crescent, 6% visible
METAR KBLH 231752Z AUTO 06006KT 10SM CLR 38/01 A2987 RMK AO2 SLP106 T03830006 10383 20222 58002

Get Severe Weather Alerts

Thanks for signing up!

Be on the lookout for a verification email in your inbox.

You'll start receiving the daily forecast at 6 AM.

×

10-Day Weather Forecast

Almanac

Astronomy

May. 23, 2017 Rise Set
Actual Time
Civil Twilight
Nautical Twilight
Astronomical Twilight
Moon
Length of Visible Light
Length of Day
Tomorrow will be .
, % of the Moon is Illuminated

Today's Extremes

State Highs State Lows

Community

WunderPhotos

Category 6

Welcome to Category 6. This is the collective home for Weather Underground's featured writeups by Dr. Jeff Masters (right), Bob Henson (left), Chris Burt, and other regular contributors.

Nearby

Air Quality

  Air Quality AQ Index Pollutant
Not available.

Snow Depth

Station Depth Elevation

Earthquake Activity

City Distance Mag. Time & Date
Minimum magnitude displayed is 2.5.

Coastal Water Temperatures

Place Temperature

Stations

Nearby Weather Stations

Station Location Temp. Windchill Dew Point Humidity Wind Precip. Elev Updated Type
                   

Watches & Warnings

There are currently no watches in effect.